createdAt,value
2022-10-13T00:01:13.150Z,7.49
2022-10-13T00:03:42.062Z,7.51
2022-10-13T00:06:10.637Z,7.46
2022-10-13T00:08:39.267Z,7.42
2022-10-13T00:11:13.399Z,7.33
2022-10-13T00:13:42.006Z,7.37
2022-10-13T00:16:10.127Z,7.33
2022-10-13T00:18:41.221Z,7.30
2022-10-13T00:21:14.180Z,7.25
2022-10-13T00:23:42.169Z,7.18
2022-10-13T00:26:11.581Z,7.11
2022-10-13T00:28:39.457Z,7.15
2022-10-13T00:31:27.262Z,7.09
2022-10-13T00:33:55.281Z,7.07
2022-10-13T00:36:24.741Z,7.07
2022-10-13T00:38:52.781Z,7.09
2022-10-13T00:41:20.814Z,7.02
2022-10-13T00:44:10.163Z,7.08
2022-10-13T00:46:37.929Z,7.06
2022-10-13T00:49:13.833Z,7.04
2022-10-13T00:51:47.965Z,7.09
2022-10-13T00:54:18.112Z,7.05
2022-10-13T00:56:47.689Z,7.00
2022-10-13T00:59:23.393Z,7.00
2022-10-13T01:01:54.223Z,6.98
2022-10-13T01:04:23.840Z,6.92
2022-10-13T01:06:52.416Z,6.91
2022-10-13T01:09:20.970Z,6.90
2022-10-13T01:11:54.600Z,6.87
2022-10-13T01:14:43.479Z,6.87
2022-10-13T01:17:26.272Z,6.77
2022-10-13T01:20:12.511Z,6.78
2022-10-13T01:22:40.017Z,6.72
2022-10-13T01:25:31.229Z,6.71
2022-10-13T01:28:04.818Z,6.63
2022-10-13T01:30:35.672Z,6.64
2022-10-13T01:33:25.470Z,6.60
2022-10-13T01:35:57.333Z,6.63
2022-10-13T01:38:41.664Z,6.63
2022-10-13T01:41:38.121Z,6.67
2022-10-13T01:44:16.478Z,6.54
2022-10-13T01:46:51.837Z,6.56
2022-10-13T01:49:20.350Z,6.51
2022-10-13T01:51:49.322Z,6.49
2022-10-13T01:54:17.171Z,6.44
2022-10-13T01:56:54.695Z,6.40
2022-10-13T01:59:22.947Z,6.32
2022-10-13T02:02:10.640Z,6.34
2022-10-13T02:04:54.160Z,6.26
2022-10-13T02:07:47.841Z,6.24
2022-10-13T02:10:26.852Z,6.19
2022-10-13T02:12:58.015Z,6.14
2022-10-13T02:15:36.904Z,6.12
2022-10-13T02:18:16.497Z,6.11
2022-10-13T02:20:44.781Z,6.05
2022-10-13T02:23:15.403Z,6.05
2022-10-13T02:25:43.082Z,6.06
2022-10-13T02:28:15.877Z,6.07
2022-10-13T02:30:44.037Z,6.11
2022-10-13T02:33:11.815Z,6.04
2022-10-13T02:35:39.998Z,6.05
2022-10-13T02:38:08.750Z,6.01
2022-10-13T02:40:36.609Z,5.99
2022-10-13T02:43:04.247Z,5.95
2022-10-13T02:45:31.928Z,5.92
2022-10-13T02:47:59.549Z,5.88
2022-10-13T02:50:27.163Z,5.84
2022-10-13T02:52:57.371Z,5.80
2022-10-13T02:55:25.620Z,5.73
2022-10-13T02:57:57.743Z,5.67
2022-10-13T03:00:25.583Z,5.67
2022-10-13T03:02:54.199Z,5.69
2022-10-13T03:05:21.822Z,5.60
2022-10-13T03:07:50.085Z,5.63
2022-10-13T03:10:17.891Z,5.65
2022-10-13T03:12:46.791Z,5.56
2022-10-13T03:15:16.856Z,5.58
2022-10-13T03:17:46.581Z,5.59
2022-10-13T03:20:14.279Z,5.58
2022-10-13T03:22:44.861Z,5.53
2022-10-13T03:25:15.510Z,5.57
2022-10-13T03:27:44.856Z,5.53
2022-10-13T03:30:12.859Z,5.47
2022-10-13T03:32:40.947Z,5.56
2022-10-13T03:35:11.690Z,5.52
2022-10-13T03:37:40.232Z,5.47
2022-10-13T03:40:08.691Z,5.43
2022-10-13T03:42:37.046Z,5.46
2022-10-13T03:45:05.396Z,5.45
2022-10-13T03:47:37.961Z,5.39
2022-10-13T03:50:05.961Z,5.38
2022-10-13T03:52:34.113Z,5.41
2022-10-13T03:55:01.857Z,5.34
2022-10-13T03:57:29.674Z,5.28
2022-10-13T03:59:57.889Z,5.28
2022-10-13T04:02:27.550Z,5.26
2022-10-13T04:04:55.454Z,5.27
2022-10-13T04:07:23.298Z,5.27
2022-10-13T04:09:50.990Z,5.30
2022-10-13T04:12:21.106Z,5.30
2022-10-13T04:14:50.493Z,5.29
2022-10-13T04:17:18.125Z,5.32
2022-10-13T04:19:54.785Z,5.34
2022-10-13T04:22:22.701Z,5.35
2022-10-13T04:24:50.447Z,5.41
2022-10-13T04:27:20.013Z,5.39
2022-10-13T04:29:47.603Z,5.45
2022-10-13T04:32:15.356Z,5.52
2022-10-13T04:34:43.410Z,5.56
2022-10-13T04:37:11.222Z,5.56
2022-10-13T04:39:38.823Z,5.62
2022-10-13T04:42:06.894Z,5.68
2022-10-13T04:44:38.792Z,5.75
2022-10-13T04:47:08.081Z,5.79
2022-10-13T04:49:37.836Z,5.88
2022-10-13T04:52:05.696Z,5.94
2022-10-13T04:54:33.375Z,5.99
2022-10-13T04:57:00.997Z,6.03
2022-10-13T04:59:28.684Z,6.10
2022-10-13T05:01:56.302Z,6.20
2022-10-13T05:04:23.989Z,6.22
2022-10-13T05:07:16.560Z,6.26
2022-10-13T05:09:42.592Z,6.34
2022-10-13T05:12:13.873Z,6.40
2022-10-13T05:14:43.349Z,6.41
2022-10-13T05:17:10.901Z,6.53
2022-10-13T05:19:41.356Z,6.46
2022-10-13T05:22:09.219Z,6.48
2022-10-13T05:24:37.136Z,6.50
2022-10-13T05:27:10.318Z,6.47
2022-10-13T05:29:38.013Z,6.59
2022-10-13T05:32:05.911Z,6.67
2022-10-13T05:34:33.625Z,6.67
2022-10-13T05:37:01.700Z,6.67
2022-10-13T05:39:30.056Z,6.78
2022-10-13T05:41:58.007Z,6.88
2022-10-13T05:44:26.369Z,6.94
2022-10-13T05:46:57.232Z,6.97
2022-10-13T05:49:24.851Z,7.07
2022-10-13T05:51:57.538Z,7.15
2022-10-13T05:54:55.964Z,7.26
2022-10-13T05:57:28.919Z,7.27
2022-10-13T05:59:59.305Z,7.41
2022-10-13T06:02:28.688Z,7.44
2022-10-13T06:04:56.313Z,7.53
2022-10-13T06:07:24.285Z,7.57
2022-10-13T06:09:52.042Z,7.64
2022-10-13T06:12:20.211Z,7.75
2022-10-13T06:14:49.114Z,7.89
2022-10-13T06:17:19.287Z,7.99
2022-10-13T06:19:48.764Z,8.10
2022-10-13T06:22:18.138Z,8.21
2022-10-13T06:24:47.352Z,8.16
2022-10-13T06:27:15.402Z,8.34
2022-10-13T06:29:43.358Z,8.34
2022-10-13T06:32:11.161Z,8.30
2022-10-13T06:34:38.890Z,8.36
2022-10-13T06:37:06.954Z,8.50
2022-10-13T06:39:34.739Z,8.53
2022-10-13T06:42:04.881Z,8.54
2022-10-13T06:44:40.356Z,8.64
2022-10-13T06:47:07.996Z,8.77
2022-10-13T06:49:35.727Z,8.91
2022-10-13T06:52:05.187Z,8.85
2022-10-13T06:54:33.841Z,8.91
2022-10-13T06:57:01.487Z,9.09
2022-10-13T06:59:29.282Z,9.15
2022-10-13T07:01:57.666Z,9.23
2022-10-13T07:04:28.111Z,9.22
2022-10-13T07:06:59.666Z,9.33
2022-10-13T07:09:27.455Z,9.42
2022-10-13T07:11:55.056Z,9.53
2022-10-13T07:14:22.769Z,9.67
2022-10-13T07:16:52.239Z,9.87
2022-10-13T07:19:20.065Z,9.91
2022-10-13T07:21:48.251Z,9.99
2022-10-13T07:24:15.908Z,10.06
2022-10-13T07:26:45.304Z,10.21
2022-10-13T07:29:12.980Z,10.43
2022-10-13T07:31:42.316Z,10.56
2022-10-13T07:34:10.131Z,10.56
2022-10-13T07:36:40.828Z,10.76
2022-10-13T07:39:09.938Z,10.72
2022-10-13T07:41:37.718Z,10.82
2022-10-13T07:44:05.497Z,10.91
2022-10-13T07:46:34.117Z,11.03
2022-10-13T07:49:02.041Z,11.12
2022-10-13T07:51:29.762Z,11.20
2022-10-13T07:53:57.500Z,11.24
2022-10-13T07:56:25.320Z,11.34
2022-10-13T07:58:53.289Z,11.47
2022-10-13T08:01:20.965Z,11.50
2022-10-13T08:03:50.396Z,11.58
2022-10-13T08:06:19.421Z,11.82
2022-10-13T08:08:48.947Z,12.06
2022-10-13T08:11:20.205Z,12.21
2022-10-13T08:13:51.279Z,12.30
2022-10-13T08:16:22.572Z,12.36
2022-10-13T08:18:50.638Z,12.33
2022-10-13T08:24:13.291Z,12.36
2022-10-13T08:26:40.862Z,12.48
2022-10-13T08:29:24.433Z,12.58
2022-10-13T08:31:53.365Z,12.73
2022-10-13T08:34:22.550Z,12.83
2022-10-13T08:36:53.607Z,12.95
2022-10-13T08:39:25.210Z,13.04
2022-10-13T08:41:53.286Z,13.13
2022-10-13T08:47:28.685Z,13.44
2022-10-13T08:50:00.252Z,13.45
2022-10-13T08:52:53.388Z,13.57
2022-10-13T08:55:40.574Z,13.63
2022-10-13T08:58:20.211Z,13.72
2022-10-13T09:00:48.023Z,13.78
2022-10-13T09:03:25.742Z,13.85
2022-10-13T09:06:22.013Z,13.76
2022-10-13T09:08:56.791Z,13.90
2022-10-13T09:11:34.493Z,14.07
2022-10-13T09:14:09.261Z,13.99
2022-10-13T09:16:42.792Z,14.08
2022-10-13T09:19:24.173Z,14.21
2022-10-13T09:21:56.993Z,14.29
2022-10-13T09:24:26.046Z,14.35
2022-10-13T09:27:11.057Z,14.67
2022-10-13T09:29:40.928Z,14.84
2022-10-13T09:32:21.101Z,14.89
2022-10-13T09:34:49.304Z,14.94
2022-10-13T09:37:21.979Z,15.10
2022-10-13T09:40:01.931Z,14.89
2022-10-13T09:42:31.913Z,14.72
2022-10-13T09:45:16.857Z,14.67
2022-10-13T09:47:55.853Z,14.80
2022-10-13T09:50:27.938Z,15.10
2022-10-13T09:53:25.065Z,15.41
2022-10-13T09:56:08.259Z,15.72
2022-10-13T09:58:41.968Z,15.96
2022-10-13T10:01:17.217Z,16.14
2022-10-13T10:03:45.156Z,16.24
2022-10-13T10:06:13.112Z,16.00
2022-10-13T10:09:02.807Z,15.80
2022-10-13T10:11:42.851Z,15.40
2022-10-13T10:14:14.813Z,15.37
2022-10-13T10:16:45.161Z,15.37
2022-10-13T10:19:26.540Z,15.00
2022-10-13T10:21:57.270Z,15.00
2022-10-13T10:24:27.866Z,14.89
2022-10-13T10:27:10.315Z,14.80
2022-10-13T10:29:44.314Z,14.77
2022-10-13T10:32:18.197Z,14.85
2022-10-13T10:34:51.655Z,15.02
2022-10-13T10:37:25.783Z,15.49
2022-10-13T10:40:06.426Z,15.79
2022-10-13T10:43:08.807Z,15.62
2022-10-13T10:45:39.898Z,15.51
2022-10-13T10:48:15.300Z,15.44
2022-10-13T10:50:43.055Z,15.74
2022-10-13T10:53:19.140Z,15.96
2022-10-13T10:55:48.387Z,16.13
2022-10-13T10:58:57.018Z,16.19
2022-10-13T11:01:31.628Z,16.32
2022-10-13T11:04:37.091Z,15.76
2022-10-13T11:07:44.661Z,15.53
2022-10-13T11:10:18.463Z,15.38
2022-10-13T11:13:12.651Z,15.13
2022-10-13T11:15:44.299Z,15.04
2022-10-13T11:18:49.199Z,15.04
2022-10-13T11:21:17.341Z,15.00
2022-10-13T11:23:48.079Z,15.33
2022-10-13T11:26:41.815Z,15.46
2022-10-13T11:29:18.101Z,15.54
2022-10-13T11:31:52.641Z,15.50
2022-10-13T11:34:31.138Z,15.38
2022-10-13T11:37:00.404Z,15.28
2022-10-13T11:39:32.509Z,15.07
2022-10-13T11:42:12.570Z,15.31
2022-10-13T11:45:08.544Z,15.94
2022-10-13T11:48:14.084Z,16.63
2022-10-13T11:50:51.118Z,17.03
2022-10-13T11:53:19.642Z,17.17
2022-10-13T11:55:56.102Z,16.93
2022-10-13T11:58:27.491Z,16.56
2022-10-13T12:00:55.406Z,16.43
2022-10-13T12:03:24.089Z,16.14
2022-10-13T12:05:52.174Z,16.13
2022-10-13T12:08:21.010Z,16.00
2022-10-13T12:10:52.922Z,15.64
2022-10-13T12:13:25.818Z,15.54
2022-10-13T12:16:12.518Z,15.43
2022-10-13T12:18:41.969Z,15.38
2022-10-13T12:21:11.937Z,15.41
2022-10-13T12:23:39.951Z,15.43
2022-10-13T12:26:07.993Z,15.84
2022-10-13T12:29:00.927Z,16.66
2022-10-13T12:31:30.801Z,17.13
2022-10-13T12:33:59.976Z,17.63
2022-10-13T12:36:32.210Z,18.16
2022-10-13T12:39:05.560Z,18.29
2022-10-13T12:41:38.411Z,17.89
2022-10-13T12:44:06.927Z,17.37
2022-10-13T12:46:41.723Z,17.84
2022-10-13T12:49:23.694Z,18.13
2022-10-13T12:51:54.297Z,17.27
2022-10-13T12:54:27.369Z,16.63
2022-10-13T12:56:58.088Z,16.72
2022-10-13T12:59:26.225Z,16.63
2022-10-13T13:02:03.236Z,16.10
2022-10-13T13:04:37.705Z,15.73
2022-10-13T13:07:06.183Z,15.34
2022-10-13T13:09:34.966Z,15.48
2022-10-13T13:12:08.669Z,15.22
2022-10-13T13:14:41.081Z,15.05
2022-10-13T13:17:38.848Z,14.86
2022-10-13T13:20:32.375Z,14.89
2022-10-13T13:22:59.942Z,14.85
2022-10-13T13:25:27.616Z,14.80
2022-10-13T13:27:56.963Z,15.25
2022-10-13T13:30:24.848Z,15.41
2022-10-13T13:32:53.484Z,15.24
2022-10-13T13:35:21.278Z,15.15
2022-10-13T13:37:52.555Z,14.91
2022-10-13T13:40:24.641Z,14.75
2022-10-13T13:42:52.363Z,14.72
2022-10-13T13:45:24.997Z,14.62
2022-10-13T13:48:00.360Z,14.53
2022-10-13T13:50:33.367Z,14.45
2022-10-13T13:53:01.620Z,14.71
2022-10-13T13:55:30.155Z,14.57
2022-10-13T13:57:58.118Z,14.55
2022-10-13T14:00:25.736Z,14.40
2022-10-13T14:02:57.329Z,14.29
2022-10-13T14:05:25.452Z,14.14
2022-10-13T14:07:55.153Z,13.94
2022-10-13T14:10:24.783Z,13.82
2022-10-13T14:12:53.467Z,13.69
2022-10-13T14:15:23.420Z,13.59
2022-10-13T14:17:54.248Z,13.54
2022-10-13T14:20:22.221Z,13.40
2022-10-13T14:22:50.060Z,13.34
2022-10-13T14:25:18.136Z,13.13
2022-10-13T14:27:48.697Z,13.11
2022-10-13T14:30:16.255Z,13.04
2022-10-13T14:32:44.506Z,12.95
2022-10-13T14:35:12.234Z,12.89
2022-10-13T14:37:40.216Z,12.77
2022-10-13T14:40:08.422Z,12.72
2022-10-13T14:42:36.140Z,12.60
2022-10-13T14:45:06.737Z,12.45
2022-10-13T14:47:34.676Z,12.36
2022-10-13T14:50:02.732Z,12.22
2022-10-13T14:52:31.129Z,12.06
2022-10-13T14:54:58.765Z,11.83
2022-10-13T14:57:26.637Z,11.54
2022-10-13T14:59:56.874Z,11.29
2022-10-13T15:02:28.627Z,11.02
2022-10-13T15:04:58.038Z,10.67
2022-10-13T15:07:25.972Z,10.40
2022-10-13T15:10:04.833Z,10.26
2022-10-13T15:12:35.130Z,10.17
2022-10-13T15:15:03.421Z,10.20
2022-10-13T15:17:31.744Z,10.11
2022-10-13T15:19:59.951Z,10.03
2022-10-13T15:22:27.804Z,9.98
2022-10-13T15:24:55.524Z,9.91
2022-10-13T15:27:23.544Z,9.92
2022-10-13T15:29:51.097Z,9.94
2022-10-13T15:32:19.177Z,10.04
2022-10-13T15:34:53.432Z,10.04
2022-10-13T15:37:21.451Z,10.05
2022-10-13T15:39:53.181Z,10.05
2022-10-13T15:42:24.249Z,9.96
2022-10-13T15:45:08.607Z,9.97
2022-10-13T15:47:38.684Z,9.87
2022-10-13T15:50:07.030Z,9.84
2022-10-13T15:52:40.106Z,9.80
2022-10-13T15:55:09.448Z,9.77
2022-10-13T15:57:37.187Z,9.73
2022-10-13T16:00:06.240Z,9.69
2022-10-13T16:02:41.037Z,9.56
2022-10-13T16:05:10.039Z,9.47
2022-10-13T16:07:38.988Z,9.43
2022-10-13T16:10:12.329Z,9.38
2022-10-13T16:12:40.207Z,9.34
2022-10-13T16:15:09.353Z,9.30
2022-10-13T16:17:37.802Z,9.29
2022-10-13T16:20:08.166Z,9.23
2022-10-13T16:22:36.018Z,9.17
2022-10-13T16:25:06.409Z,9.12
2022-10-13T16:27:34.123Z,9.09
2022-10-13T16:30:01.783Z,9.06
2022-10-13T16:32:30.944Z,8.87
2022-10-13T16:34:59.535Z,8.73
2022-10-13T16:37:27.173Z,8.56
2022-10-13T16:39:56.517Z,8.42
2022-10-13T16:42:24.178Z,8.24
2022-10-13T16:44:51.746Z,8.19
2022-10-13T16:47:19.409Z,8.05
2022-10-13T16:49:47.780Z,7.96
2022-10-13T16:52:17.377Z,7.83
2022-10-13T16:54:46.633Z,7.67
2022-10-13T16:57:14.360Z,7.54
2022-10-13T16:59:41.898Z,7.46
2022-10-13T17:02:15.693Z,7.38
2022-10-13T17:04:43.823Z,7.30
2022-10-13T17:07:12.170Z,7.22
2022-10-13T17:09:40.121Z,7.16
2022-10-13T17:12:07.820Z,7.13
2022-10-13T17:14:36.601Z,7.05
2022-10-13T17:17:05.514Z,6.96
2022-10-13T17:19:34.278Z,6.94
2022-10-13T17:22:01.920Z,6.94
2022-10-13T17:24:30.286Z,6.92
2022-10-13T17:26:57.889Z,6.86
2022-10-13T17:29:26.193Z,6.80
2022-10-13T17:31:54.459Z,6.72
2022-10-13T17:34:23.030Z,6.79
2022-10-13T17:36:52.330Z,6.79
2022-10-13T17:39:20.213Z,6.76
2022-10-13T17:41:48.261Z,6.81
2022-10-13T17:44:20.539Z,6.82
2022-10-13T17:46:50.221Z,6.81
2022-10-13T17:49:18.921Z,6.82
2022-10-13T17:51:47.008Z,6.87
2022-10-13T17:54:16.620Z,6.89
2022-10-13T17:56:45.445Z,7.02
2022-10-13T17:59:15.303Z,7.19
2022-10-13T18:01:44.631Z,7.20
2022-10-13T18:04:14.130Z,7.28
2022-10-13T18:06:44.198Z,7.35
2022-10-13T18:09:14.050Z,7.32
2022-10-13T18:11:50.140Z,7.33
2022-10-13T18:14:22.515Z,7.35
2022-10-13T18:16:51.125Z,7.31
2022-10-13T18:19:21.724Z,7.24
2022-10-13T18:21:50.254Z,7.17
2022-10-13T18:24:18.563Z,7.02
2022-10-13T18:26:46.585Z,6.82
2022-10-13T18:29:14.655Z,6.64
2022-10-13T18:31:43.065Z,6.37
2022-10-13T18:34:16.089Z,6.21
2022-10-13T18:36:47.324Z,6.02
2022-10-13T18:39:16.041Z,5.84
2022-10-13T18:41:46.348Z,5.79
2022-10-13T18:44:14.334Z,5.73
2022-10-13T18:46:41.966Z,5.68
2022-10-13T18:49:12.689Z,5.68
2022-10-13T18:51:42.693Z,5.74
2022-10-13T18:54:10.649Z,5.73
2022-10-13T18:56:38.372Z,5.70
2022-10-13T18:59:06.926Z,5.68
2022-10-13T19:01:36.673Z,5.70
2022-10-13T19:04:05.019Z,5.77
2022-10-13T19:06:33.085Z,5.70
2022-10-13T19:09:02.696Z,5.61
2022-10-13T19:11:32.027Z,5.44
2022-10-13T19:14:01.441Z,5.31
2022-10-13T19:16:30.529Z,5.32
2022-10-13T19:19:00.202Z,5.50
2022-10-13T19:21:30.662Z,5.70
2022-10-13T19:24:01.559Z,5.72
2022-10-13T19:26:31.123Z,5.61
2022-10-13T19:29:01.129Z,5.51
2022-10-13T19:31:30.274Z,5.50
2022-10-13T19:33:59.817Z,5.45
2022-10-13T19:36:39.207Z,5.42
2022-10-13T19:39:26.271Z,5.30
2022-10-13T19:41:54.963Z,5.16
2022-10-13T19:44:23.431Z,5.11
2022-10-13T19:46:51.273Z,5.17
2022-10-13T19:49:21.226Z,5.12
2022-10-13T19:51:49.547Z,5.12
2022-10-13T19:54:18.151Z,5.09
2022-10-13T19:56:47.475Z,5.01
2022-10-13T19:59:15.587Z,5.07
2022-10-13T20:01:44.184Z,5.10
2022-10-13T20:04:15.974Z,5.01
2022-10-13T20:06:51.629Z,5.06
2022-10-13T20:09:22.149Z,5.04
2022-10-13T20:11:55.655Z,5.02
2022-10-13T20:14:25.776Z,5.07
2022-10-13T20:16:53.666Z,5.04
2022-10-13T20:19:23.111Z,5.04
2022-10-13T20:21:53.006Z,4.97
2022-10-13T20:24:21.797Z,4.97
2022-10-13T20:26:50.315Z,4.93
2022-10-13T20:29:22.856Z,4.90
2022-10-13T20:31:50.824Z,4.85
2022-10-13T20:34:18.578Z,4.75
2022-10-13T20:36:46.421Z,4.70
2022-10-13T20:39:14.291Z,4.71
2022-10-13T20:41:42.025Z,4.67
2022-10-13T20:44:10.379Z,4.58
2022-10-13T20:46:38.011Z,4.52
2022-10-13T20:49:11.302Z,4.45
2022-10-13T20:51:41.896Z,4.35
2022-10-13T20:54:10.694Z,4.43
2022-10-13T20:56:40.090Z,4.51
2022-10-13T20:59:10.068Z,4.52
2022-10-13T21:01:37.880Z,4.49
2022-10-13T21:04:05.729Z,4.42
2022-10-13T21:06:34.573Z,4.38
2022-10-13T21:09:04.763Z,4.32
2022-10-13T21:11:32.806Z,4.21
2022-10-13T21:14:02.994Z,4.16
2022-10-13T21:16:31.996Z,4.12
2022-10-13T21:19:01.948Z,4.09
2022-10-13T21:21:31.925Z,4.04
2022-10-13T21:24:01.571Z,4.03
2022-10-13T21:26:30.339Z,4.00
2022-10-13T21:28:57.988Z,3.91
2022-10-13T21:31:25.949Z,3.87
2022-10-13T21:33:54.600Z,3.83
2022-10-13T21:36:26.135Z,3.66
2022-10-13T21:38:54.528Z,3.70
2022-10-13T21:41:22.358Z,3.75
2022-10-13T21:43:50.820Z,3.71
2022-10-13T21:46:27.011Z,3.66
2022-10-13T21:48:56.797Z,3.57
2022-10-13T21:51:26.175Z,3.53
2022-10-13T21:53:57.621Z,3.46
2022-10-13T21:56:25.911Z,3.49
2022-10-13T21:58:54.691Z,3.48
2022-10-13T22:01:22.585Z,3.47
2022-10-13T22:03:53.425Z,3.45
2022-10-13T22:06:25.446Z,3.43
2022-10-13T22:08:54.235Z,3.52
2022-10-13T22:11:24.008Z,3.55
2022-10-13T22:13:52.243Z,3.61
2022-10-13T22:16:24.617Z,3.84
2022-10-13T22:18:54.304Z,4.03
2022-10-13T22:21:24.372Z,4.19
2022-10-13T22:23:52.116Z,4.27
2022-10-13T22:26:19.794Z,4.35
2022-10-13T22:28:51.596Z,4.40
2022-10-13T22:31:19.806Z,4.39
2022-10-13T22:33:47.561Z,4.43
2022-10-13T22:36:17.263Z,4.45
2022-10-13T22:38:45.655Z,4.48
2022-10-13T22:41:14.853Z,4.50
2022-10-13T22:43:46.869Z,4.52
2022-10-13T22:46:15.931Z,4.49
2022-10-13T22:48:44.996Z,4.57
2022-10-13T22:51:19.797Z,4.59
2022-10-13T22:53:47.662Z,4.66
2022-10-13T22:56:22.915Z,4.68
2022-10-13T22:59:01.537Z,4.66
2022-10-13T23:01:29.964Z,4.71
2022-10-13T23:03:58.426Z,4.64
2022-10-13T23:06:28.077Z,4.69
2022-10-13T23:08:56.472Z,4.72
2022-10-13T23:11:24.013Z,4.73
2022-10-13T23:13:51.925Z,4.74
2022-10-13T23:16:22.776Z,4.80
2022-10-13T23:18:52.912Z,4.84
2022-10-13T23:21:28.295Z,4.85
2022-10-13T23:23:57.638Z,4.96
2022-10-13T23:26:25.584Z,5.01
2022-10-13T23:28:55.413Z,5.01
2022-10-13T23:31:23.154Z,4.97
2022-10-13T23:33:50.901Z,4.97
2022-10-13T23:36:20.404Z,4.97
2022-10-13T23:38:58.913Z,4.93
2022-10-13T23:41:26.582Z,4.85
2022-10-13T23:43:54.281Z,4.87
2022-10-13T23:46:21.902Z,4.80
2022-10-13T23:48:49.681Z,4.79
2022-10-13T23:51:20.317Z,4.85
2022-10-13T23:53:48.037Z,4.87
2022-10-13T23:56:15.902Z,4.82
2022-10-13T23:58:44.694Z,4.83
